createdAt,value
2023-05-23T00:01:38.098Z,12.20
2023-05-23T00:04:17.580Z,17.50
2023-05-23T00:06:51.907Z,16.70
2023-05-23T00:09:26.796Z,18.60
2023-05-23T00:12:04.162Z,14.80
2023-05-23T00:14:37.764Z,15.30
2023-05-23T00:17:12.587Z,15.30
2023-05-23T00:19:47.228Z,14.40
2023-05-23T00:22:21.316Z,14.20
2023-05-23T00:24:54.816Z,14.10
2023-05-23T00:27:28.956Z,20.90
2023-05-23T00:30:02.659Z,13.40
2023-05-23T00:32:36.945Z,13.00
2023-05-23T00:35:12.326Z,16.30
2023-05-23T00:37:45.938Z,14.10
2023-05-23T00:40:19.907Z,13.70
2023-05-23T00:42:53.919Z,11.40
2023-05-23T00:45:28.144Z,13.00
2023-05-23T00:48:02.430Z,15.70
2023-05-23T00:50:37.021Z,13.70
2023-05-23T00:53:10.424Z,13.50
2023-05-23T00:55:45.933Z,13.40
2023-05-23T00:58:20.133Z,16.70
2023-05-23T01:00:54.951Z,13.30
2023-05-23T01:03:29.098Z,14.50
2023-05-23T01:06:03.063Z,10.80
2023-05-23T01:08:36.909Z,14.70
2023-05-23T01:11:16.368Z,12.00
2023-05-23T01:14:01.659Z,15.80
2023-05-23T01:16:44.060Z,12.00
2023-05-23T01:19:43.410Z,12.30
2023-05-23T01:22:25.493Z,12.10
2023-05-23T01:25:09.400Z,13.00
2023-05-23T01:27:57.816Z,11.80
2023-05-23T01:30:37.057Z,13.50
2023-05-23T01:33:12.871Z,13.10
2023-05-23T01:35:46.851Z,12.00
2023-05-23T01:38:21.468Z,14.30
2023-05-23T01:40:55.175Z,11.40
2023-05-23T01:43:28.701Z,14.60
2023-05-23T01:46:03.388Z,11.70
2023-05-23T01:48:37.963Z,13.10
2023-05-23T01:51:12.149Z,13.20
2023-05-23T01:53:47.241Z,14.80
2023-05-23T01:56:21.972Z,11.80
2023-05-23T01:58:55.679Z,12.10
2023-05-23T02:01:29.462Z,13.00
2023-05-23T02:04:05.532Z,14.00
2023-05-23T02:06:39.215Z,12.50
2023-05-23T02:09:13.109Z,12.70
2023-05-23T02:11:46.722Z,12.60
2023-05-23T02:14:20.719Z,12.60
2023-05-23T02:16:54.463Z,13.90
2023-05-23T02:19:28.644Z,13.90
2023-05-23T02:22:04.094Z,12.80
2023-05-23T02:24:38.060Z,14.60
2023-05-23T02:27:12.698Z,13.30
2023-05-23T02:29:46.383Z,11.50
2023-05-23T02:32:19.988Z,12.30
2023-05-23T02:34:55.113Z,11.40
2023-05-23T02:37:31.030Z,11.90
2023-05-23T02:40:05.194Z,11.40
2023-05-23T02:42:38.922Z,11.40
2023-05-23T02:45:14.627Z,12.70
2023-05-23T02:47:48.081Z,11.80
2023-05-23T02:50:21.864Z,10.70
2023-05-23T02:52:55.845Z,14.70
2023-05-23T02:55:33.161Z,13.30
2023-05-23T02:58:07.494Z,13.40
2023-05-23T03:00:44.475Z,13.50
2023-05-23T03:03:18.916Z,11.20
2023-05-23T03:05:52.778Z,16.20
2023-05-23T03:08:26.402Z,12.10
2023-05-23T03:10:59.894Z,12.90
2023-05-23T03:13:33.946Z,13.60
2023-05-23T03:16:08.538Z,15.00
2023-05-23T03:18:43.370Z,13.90
2023-05-23T03:21:17.229Z,14.40
2023-05-23T03:23:51.629Z,13.20
2023-05-23T03:26:25.694Z,10.70
2023-05-23T03:28:59.775Z,13.50
2023-05-23T03:31:33.427Z,14.10
2023-05-23T03:34:07.181Z,11.70
2023-05-23T03:36:41.830Z,16.70
2023-05-23T03:39:16.420Z,13.30
2023-05-23T03:41:54.096Z,13.10
2023-05-23T03:44:27.848Z,12.70
2023-05-23T03:47:02.376Z,12.70
2023-05-23T03:49:36.604Z,14.70
2023-05-23T03:52:10.821Z,15.30
2023-05-23T03:54:45.036Z,12.40
2023-05-23T03:57:19.655Z,11.60
2023-05-23T03:59:53.973Z,12.20
2023-05-23T04:02:27.959Z,14.90
2023-05-23T04:05:22.721Z,14.00
2023-05-23T04:07:57.482Z,13.00
2023-05-23T04:10:30.844Z,11.60
2023-05-23T04:13:05.675Z,13.00
2023-05-23T04:15:40.322Z,10.10
2023-05-23T04:18:17.923Z,12.80
2023-05-23T04:20:51.765Z,15.60
2023-05-23T04:23:25.630Z,11.00
2023-05-23T04:26:00.782Z,10.00
2023-05-23T04:28:44.812Z,13.10
2023-05-23T04:31:19.570Z,12.10
2023-05-23T04:33:53.428Z,9.90
2023-05-23T04:36:27.834Z,11.40
2023-05-23T04:39:02.559Z,10.20
2023-05-23T04:41:40.510Z,12.80
2023-05-23T04:44:37.917Z,9.10
2023-05-23T04:47:19.609Z,10.20
2023-05-23T04:50:15.363Z,10.80
2023-05-23T04:52:49.457Z,11.60
2023-05-23T04:55:23.605Z,10.30
2023-05-23T04:57:57.689Z,9.80
2023-05-23T05:00:31.997Z,9.70
2023-05-23T05:03:05.863Z,11.20
2023-05-23T05:05:39.821Z,10.80
2023-05-23T05:08:14.792Z,9.10
2023-05-23T05:10:49.015Z,11.10
2023-05-23T05:13:24.722Z,9.90
2023-05-23T05:16:01.511Z,9.40
2023-05-23T05:18:36.001Z,9.70
2023-05-23T05:21:09.830Z,14.00
2023-05-23T05:23:45.048Z,10.50
2023-05-23T05:26:21.942Z,10.10
2023-05-23T05:28:57.394Z,11.00
2023-05-23T05:31:31.048Z,9.10
2023-05-23T05:34:04.790Z,9.50
2023-05-23T05:36:39.356Z,12.30
2023-05-23T05:39:14.562Z,9.30
2023-05-23T05:41:48.571Z,9.20
2023-05-23T05:44:22.425Z,9.40
2023-05-23T05:46:57.930Z,11.30
2023-05-23T05:49:32.666Z,9.80
2023-05-23T05:52:07.300Z,9.20
2023-05-23T05:54:41.333Z,10.00
2023-05-23T05:57:15.406Z,7.70
2023-05-23T05:59:49.382Z,11.40
2023-05-23T06:02:23.700Z,8.70
2023-05-23T06:04:57.486Z,14.30
2023-05-23T06:07:31.335Z,7.30
2023-05-23T06:10:05.484Z,8.00
2023-05-23T06:12:39.483Z,8.80
2023-05-23T06:15:16.376Z,8.90
2023-05-23T06:17:50.213Z,8.70
2023-05-23T06:20:24.049Z,13.20
2023-05-23T06:22:58.548Z,9.00
2023-05-23T06:25:32.858Z,7.40
2023-05-23T06:28:06.930Z,9.50
2023-05-23T06:30:41.464Z,8.50
2023-05-23T06:33:15.378Z,9.40
2023-05-23T06:35:49.667Z,9.20
2023-05-23T06:38:23.384Z,11.40
2023-05-23T06:40:57.503Z,7.30
2023-05-23T06:43:31.341Z,10.20
2023-05-23T06:46:26.120Z,8.30
2023-05-23T06:49:13.855Z,8.60
2023-05-23T06:51:49.914Z,7.30
2023-05-23T06:54:23.905Z,8.40
2023-05-23T06:56:57.903Z,7.00
2023-05-23T06:59:32.643Z,5.40
2023-05-23T07:02:08.075Z,7.80
2023-05-23T07:04:42.146Z,7.00
2023-05-23T07:07:21.430Z,8.40
2023-05-23T07:09:54.904Z,6.60
2023-05-23T07:12:29.738Z,5.10
2023-05-23T07:15:03.303Z,5.70
2023-05-23T07:17:37.341Z,8.60
2023-05-23T07:20:13.379Z,6.70
2023-05-23T07:22:52.051Z,5.40
2023-05-23T07:25:25.691Z,5.60
2023-05-23T07:28:00.199Z,6.30
2023-05-23T07:30:34.207Z,8.00
2023-05-23T07:33:08.232Z,7.00
2023-05-23T07:35:46.106Z,4.70
2023-05-23T07:38:20.105Z,5.90
2023-05-23T07:41:03.028Z,6.60
2023-05-23T07:43:44.539Z,6.10
2023-05-23T07:46:18.718Z,5.80
2023-05-23T07:48:52.689Z,7.80
2023-05-23T07:51:26.474Z,5.80
2023-05-23T07:54:00.577Z,4.90
2023-05-23T07:56:34.460Z,5.90
2023-05-23T07:59:08.877Z,7.50
2023-05-23T08:01:45.138Z,6.10
2023-05-23T08:04:24.442Z,7.60
2023-05-23T08:09:42.649Z,5.00
2023-05-23T08:12:18.533Z,6.10
2023-05-23T08:14:53.424Z,6.20
2023-05-23T08:17:30.800Z,7.80
2023-05-23T08:20:05.753Z,6.60
2023-05-23T08:22:40.170Z,5.00
2023-05-23T08:25:14.522Z,4.30
2023-05-23T08:27:48.420Z,5.30
2023-05-23T08:30:45.378Z,6.40
2023-05-23T08:33:19.106Z,6.20
2023-05-23T08:35:54.131Z,6.90
2023-05-23T08:38:28.090Z,5.20
2023-05-23T08:41:18.832Z,6.70
2023-05-23T08:43:53.335Z,5.70
2023-05-23T08:46:36.047Z,5.70
2023-05-23T08:49:12.529Z,6.20
2023-05-23T08:51:48.934Z,9.80
2023-05-23T08:54:27.541Z,8.70
2023-05-23T08:57:01.633Z,6.10
2023-05-23T08:59:37.153Z,6.50
2023-05-23T09:02:15.011Z,4.10
2023-05-23T09:04:48.667Z,5.30
2023-05-23T09:07:27.536Z,6.50
2023-05-23T09:10:01.879Z,5.10
2023-05-23T09:12:36.900Z,5.10
2023-05-23T09:15:12.802Z,7.40
2023-05-23T09:17:47.344Z,7.20
2023-05-23T09:20:21.961Z,6.70
2023-05-23T09:23:02.960Z,5.80
2023-05-23T09:25:42.222Z,4.30
2023-05-23T09:28:16.852Z,4.60
2023-05-23T09:30:50.695Z,4.20
2023-05-23T09:33:30.679Z,5.50
2023-05-23T09:36:05.095Z,7.80
2023-05-23T09:38:41.862Z,7.40
2023-05-23T09:41:16.453Z,6.20
2023-05-23T09:44:01.830Z,4.90
2023-05-23T09:46:39.871Z,5.10
2023-05-23T09:49:22.758Z,6.40
2023-05-23T09:52:03.312Z,7.70
2023-05-23T09:54:37.086Z,6.70
2023-05-23T09:57:13.543Z,4.90
2023-05-23T09:59:56.430Z,6.90
2023-05-23T10:03:00.393Z,4.00
2023-05-23T10:05:40.637Z,6.40
2023-05-23T10:08:20.570Z,8.40
2023-05-23T10:14:15.939Z,6.20
2023-05-23T10:17:01.488Z,6.90
2023-05-23T10:19:40.704Z,5.50
2023-05-23T10:22:17.207Z,7.20
2023-05-23T10:24:52.256Z,7.50
2023-05-23T10:27:26.250Z,7.80
2023-05-23T10:30:00.899Z,4.90
2023-05-23T10:32:36.138Z,5.30
2023-05-23T10:35:16.311Z,8.90
2023-05-23T10:37:57.926Z,5.70
2023-05-23T10:40:45.274Z,5.10
2023-05-23T10:43:26.806Z,7.80
2023-05-23T10:46:01.615Z,4.80
2023-05-23T10:48:43.349Z,5.40
2023-05-23T10:51:17.831Z,6.10
2023-05-23T10:53:56.801Z,4.80
2023-05-23T10:56:37.641Z,5.50
2023-05-23T10:59:22.114Z,7.70
2023-05-23T11:01:57.624Z,6.50
2023-05-23T11:04:32.207Z,6.50
2023-05-23T11:07:06.300Z,5.10
2023-05-23T11:10:01.022Z,5.00
2023-05-23T11:12:42.864Z,4.60
2023-05-23T11:15:45.495Z,4.80
2023-05-23T11:18:28.713Z,5.50
2023-05-23T11:21:05.035Z,4.60
2023-05-23T11:23:45.218Z,6.90
2023-05-23T11:26:34.682Z,6.10
2023-05-23T11:29:12.846Z,3.70
2023-05-23T11:34:19.744Z,8.50
2023-05-23T11:36:58.447Z,8.90
2023-05-23T11:39:32.296Z,6.30
2023-05-23T11:42:07.416Z,6.00
2023-05-23T11:44:41.344Z,5.30
2023-05-23T11:47:14.903Z,5.60
2023-05-23T11:49:49.690Z,7.00
2023-05-23T11:52:23.749Z,6.30
2023-05-23T11:55:02.071Z,4.50
2023-05-23T11:57:39.668Z,5.20
2023-05-23T12:00:16.498Z,5.00
2023-05-23T12:02:50.709Z,5.50
2023-05-23T12:05:24.856Z,4.50
2023-05-23T12:08:01.707Z,6.00
2023-05-23T12:10:35.329Z,6.70
2023-05-23T12:13:09.337Z,9.60
2023-05-23T12:15:43.707Z,6.10
2023-05-23T12:18:17.863Z,5.60
2023-05-23T12:20:52.802Z,6.30
2023-05-23T12:23:28.784Z,5.50
2023-05-23T12:26:02.456Z,5.30
2023-05-23T12:28:45.557Z,7.00
2023-05-23T12:31:21.754Z,6.70
2023-05-23T12:33:56.735Z,7.30
2023-05-23T12:36:32.649Z,6.50
2023-05-23T12:39:08.003Z,8.60
2023-05-23T12:41:43.377Z,6.40
2023-05-23T12:44:21.067Z,6.00
2023-05-23T12:46:55.221Z,7.20
2023-05-23T12:49:28.817Z,9.00
2023-05-23T12:52:02.729Z,8.50
2023-05-23T12:54:36.544Z,6.60
2023-05-23T12:57:10.427Z,6.40
2023-05-23T12:59:44.199Z,6.40
2023-05-23T13:02:18.340Z,5.40
2023-05-23T13:04:52.900Z,6.90
2023-05-23T13:07:27.137Z,7.10
2023-05-23T13:10:01.379Z,7.20
2023-05-23T13:12:35.119Z,4.90
2023-05-23T13:15:10.824Z,6.70
2023-05-23T13:17:48.035Z,6.50
2023-05-23T13:20:24.048Z,7.30
2023-05-23T13:22:57.442Z,5.00
2023-05-23T13:25:31.328Z,6.60
2023-05-23T13:28:05.336Z,7.40
2023-05-23T13:30:39.351Z,8.10
2023-05-23T13:33:13.321Z,6.70
2023-05-23T13:35:49.700Z,7.40
2023-05-23T13:38:26.038Z,7.90
2023-05-23T13:41:00.939Z,10.70
2023-05-23T13:43:34.830Z,7.90
2023-05-23T13:46:09.599Z,6.70
2023-05-23T13:48:43.492Z,5.80
2023-05-23T13:51:17.290Z,7.40
2023-05-23T13:53:51.201Z,7.40
2023-05-23T13:56:26.434Z,7.30
2023-05-23T13:59:00.152Z,7.40
2023-05-23T14:01:34.029Z,6.60
2023-05-23T14:04:07.781Z,6.60
2023-05-23T14:06:42.255Z,6.80
2023-05-23T14:09:16.636Z,7.60
2023-05-23T14:11:52.163Z,5.00
2023-05-23T14:14:27.491Z,9.50
2023-05-23T14:17:01.739Z,6.90
2023-05-23T14:19:36.929Z,8.60
2023-05-23T14:22:11.846Z,7.60
2023-05-23T14:24:47.039Z,6.20
2023-05-23T14:27:21.162Z,9.10
2023-05-23T14:29:55.376Z,6.30
2023-05-23T14:32:29.055Z,8.50
2023-05-23T14:35:03.038Z,7.40
2023-05-23T14:37:37.012Z,6.40
2023-05-23T14:40:14.636Z,8.70
2023-05-23T14:42:49.580Z,7.10
2023-05-23T14:45:24.946Z,7.10
2023-05-23T14:47:59.360Z,6.10
2023-05-23T14:50:33.286Z,7.00
2023-05-23T14:53:07.054Z,7.90
2023-05-23T14:55:41.847Z,5.20
2023-05-23T14:58:16.223Z,7.90
2023-05-23T15:00:50.249Z,11.10
2023-05-23T15:03:24.535Z,9.20
2023-05-23T15:05:58.715Z,7.50
2023-05-23T15:08:32.824Z,7.60
2023-05-23T15:11:06.552Z,10.60
2023-05-23T15:13:40.310Z,7.60
2023-05-23T15:16:14.966Z,10.90
2023-05-23T15:18:49.766Z,7.60
2023-05-23T15:21:24.216Z,8.80
2023-05-23T15:23:59.353Z,8.30
2023-05-23T15:26:33.671Z,7.30
2023-05-23T15:29:07.929Z,7.80
2023-05-23T15:31:45.412Z,8.30
2023-05-23T15:34:19.392Z,7.30
2023-05-23T15:36:53.581Z,8.40
2023-05-23T15:39:28.453Z,7.00
2023-05-23T15:42:03.743Z,6.60
2023-05-23T15:44:38.322Z,7.60
2023-05-23T15:47:13.070Z,7.40
2023-05-23T15:49:47.467Z,9.50
2023-05-23T15:52:21.475Z,8.10
2023-05-23T15:54:55.241Z,8.50
2023-05-23T15:57:28.773Z,8.80
2023-05-23T16:00:02.471Z,6.60
2023-05-23T16:02:47.199Z,8.60
2023-05-23T16:05:21.876Z,8.80
2023-05-23T16:07:56.827Z,7.00
2023-05-23T16:10:31.561Z,7.70
2023-05-23T16:13:05.902Z,9.50
2023-05-23T16:15:40.533Z,12.80
2023-05-23T16:18:16.196Z,7.20
2023-05-23T16:20:50.373Z,9.20
2023-05-23T16:23:23.922Z,8.00
2023-05-23T16:25:57.882Z,7.30
2023-05-23T16:28:32.199Z,9.80
2023-05-23T16:31:06.193Z,6.30
2023-05-23T16:33:39.933Z,6.90
2023-05-23T16:36:14.298Z,8.50
2023-05-23T16:38:48.366Z,10.10
2023-05-23T16:41:21.983Z,8.90
2023-05-23T16:43:56.062Z,8.70
2023-05-23T16:46:29.995Z,9.50
2023-05-23T16:49:04.081Z,7.40
2023-05-23T16:51:38.619Z,11.80
2023-05-23T16:54:13.076Z,10.30
2023-05-23T16:56:47.238Z,7.90
2023-05-23T16:59:21.979Z,10.60
2023-05-23T17:01:56.491Z,9.00
2023-05-23T17:04:30.456Z,9.30
2023-05-23T17:07:04.203Z,7.20
2023-05-23T17:09:38.221Z,7.80
2023-05-23T17:12:12.831Z,10.10
2023-05-23T17:14:46.850Z,10.10
2023-05-23T17:17:21.497Z,15.70
2023-05-23T17:19:55.430Z,11.60
2023-05-23T17:22:31.159Z,8.50
2023-05-23T17:25:06.719Z,10.50
2023-05-23T17:27:41.432Z,9.10
2023-05-23T17:30:18.932Z,9.20
2023-05-23T17:32:53.429Z,10.70
2023-05-23T17:35:27.481Z,10.40
2023-05-23T17:38:02.805Z,8.80
2023-05-23T17:40:36.595Z,10.40
2023-05-23T17:43:10.292Z,8.90
2023-05-23T17:45:44.221Z,8.90
2023-05-23T17:48:18.952Z,8.70
2023-05-23T17:50:53.251Z,12.50
2023-05-23T17:53:28.540Z,12.80
2023-05-23T17:56:02.284Z,10.40
2023-05-23T17:58:36.736Z,9.80
2023-05-23T18:01:12.067Z,10.90
2023-05-23T18:03:49.583Z,14.00
2023-05-23T18:06:23.117Z,10.40
2023-05-23T18:08:57.266Z,10.40
2023-05-23T18:11:31.435Z,12.40
2023-05-23T18:14:05.906Z,9.70
2023-05-23T18:16:39.872Z,11.90
2023-05-23T18:19:13.760Z,11.10
2023-05-23T18:21:47.677Z,13.70
2023-05-23T18:24:21.915Z,13.60
2023-05-23T18:26:55.551Z,10.40
2023-05-23T18:29:29.258Z,11.20
2023-05-23T18:32:03.062Z,10.20
2023-05-23T18:34:38.169Z,10.40
2023-05-23T18:37:11.915Z,10.00
2023-05-23T18:39:45.601Z,10.90
2023-05-23T18:42:19.592Z,10.10
2023-05-23T18:44:53.972Z,13.50
2023-05-23T18:47:28.360Z,13.30
2023-05-23T18:50:02.157Z,11.00
2023-05-23T18:52:37.740Z,11.40
2023-05-23T18:55:13.276Z,11.20
2023-05-23T18:57:47.772Z,12.30
2023-05-23T19:00:22.490Z,11.20
2023-05-23T19:02:55.945Z,11.70
2023-05-23T19:05:29.906Z,13.10
2023-05-23T19:08:04.111Z,13.10
2023-05-23T19:10:37.922Z,14.00
2023-05-23T19:13:11.392Z,13.10
2023-05-23T19:15:46.058Z,15.60
2023-05-23T19:18:20.708Z,11.00
2023-05-23T19:20:55.316Z,12.30
2023-05-23T19:23:29.584Z,12.40
2023-05-23T19:26:03.770Z,11.40
2023-05-23T19:28:38.282Z,12.40
2023-05-23T19:31:12.735Z,13.70
2023-05-23T19:33:46.633Z,16.40
2023-05-23T19:36:20.403Z,14.30
2023-05-23T19:38:54.494Z,13.90
2023-05-23T19:41:28.799Z,12.30
2023-05-23T19:44:03.033Z,14.70
2023-05-23T19:46:37.366Z,13.70
2023-05-23T19:49:11.606Z,14.50
2023-05-23T19:51:45.508Z,15.00
2023-05-23T19:54:19.839Z,12.90
2023-05-23T19:56:53.358Z,14.20
2023-05-23T19:59:27.308Z,16.00
2023-05-23T20:02:03.677Z,12.80
2023-05-23T20:04:41.303Z,13.40
2023-05-23T20:07:15.426Z,11.70
2023-05-23T20:09:48.963Z,10.30
2023-05-23T20:12:22.867Z,16.90
2023-05-23T20:14:57.822Z,12.70
2023-05-23T20:17:31.805Z,12.70
2023-05-23T20:20:06.038Z,11.50
2023-05-23T20:22:39.996Z,15.30
2023-05-23T20:25:14.207Z,12.90
2023-05-23T20:27:48.255Z,15.20
2023-05-23T20:30:22.449Z,13.10
2023-05-23T20:32:56.417Z,16.20
2023-05-23T20:35:30.617Z,16.90
2023-05-23T20:38:04.612Z,17.40
2023-05-23T20:40:38.998Z,15.50
2023-05-23T20:43:15.592Z,13.60
2023-05-23T20:45:49.841Z,11.90
2023-05-23T20:48:23.532Z,13.50
2023-05-23T20:50:57.657Z,13.40
2023-05-23T20:53:31.990Z,14.10
2023-05-23T20:56:06.145Z,12.10
2023-05-23T20:58:40.439Z,10.60
2023-05-23T21:01:15.523Z,11.90
2023-05-23T21:03:49.413Z,15.80
2023-05-23T21:06:23.550Z,12.50
2023-05-23T21:08:57.242Z,11.60
2023-05-23T21:11:34.258Z,15.60
2023-05-23T21:14:08.095Z,10.90
2023-05-23T21:16:41.880Z,12.00
2023-05-23T21:19:15.944Z,14.50
2023-05-23T21:21:50.948Z,12.10
2023-05-23T21:24:25.412Z,10.70
2023-05-23T21:27:02.131Z,14.40
2023-05-23T21:29:35.679Z,12.90
2023-05-23T21:32:09.682Z,13.40
2023-05-23T21:34:43.680Z,14.60
2023-05-23T21:37:17.642Z,12.70
2023-05-23T21:39:52.569Z,12.40
2023-05-23T21:42:26.590Z,15.80
2023-05-23T21:45:00.433Z,12.70
2023-05-23T21:47:34.933Z,13.40
2023-05-23T21:50:10.372Z,14.80
2023-05-23T21:52:43.813Z,19.00
2023-05-23T21:55:17.213Z,12.10
2023-05-23T21:57:51.191Z,14.30
2023-05-23T22:00:27.571Z,16.50
2023-05-23T22:03:01.323Z,13.40
2023-05-23T22:05:35.097Z,15.30
2023-05-23T22:08:08.781Z,13.70
2023-05-23T22:10:43.528Z,14.70
2023-05-23T22:13:17.843Z,12.10
2023-05-23T22:15:54.865Z,13.90
2023-05-23T22:18:30.627Z,11.00
2023-05-23T22:21:09.609Z,13.20
2023-05-23T22:23:43.582Z,14.40
2023-05-23T22:26:18.098Z,13.10
2023-05-23T22:28:53.960Z,13.80
2023-05-23T22:31:29.230Z,12.20
2023-05-23T22:34:03.418Z,12.00
2023-05-23T22:36:36.968Z,10.80
2023-05-23T22:39:11.265Z,11.50
2023-05-23T22:41:45.677Z,11.70
2023-05-23T22:44:19.614Z,12.10
2023-05-23T22:46:53.876Z,11.40
2023-05-23T22:49:30.712Z,13.70
2023-05-23T22:52:04.352Z,12.70
2023-05-23T22:54:38.014Z,10.80
2023-05-23T22:57:11.965Z,13.90
2023-05-23T22:59:46.001Z,15.10
2023-05-23T23:02:20.006Z,16.60
2023-05-23T23:04:54.069Z,12.80
2023-05-23T23:07:27.766Z,12.80
2023-05-23T23:10:01.187Z,12.00
2023-05-23T23:12:35.202Z,13.80
2023-05-23T23:15:10.635Z,13.30
2023-05-23T23:17:44.691Z,13.90
2023-05-23T23:20:19.775Z,11.60
2023-05-23T23:22:53.453Z,13.60
2023-05-23T23:25:27.607Z,12.30
2023-05-23T23:28:01.566Z,12.80
2023-05-23T23:30:35.639Z,12.60
2023-05-23T23:33:19.044Z,13.10
2023-05-23T23:35:53.183Z,14.70
2023-05-23T23:38:27.034Z,13.10
2023-05-23T23:41:00.956Z,13.10
2023-05-23T23:43:35.368Z,11.10
2023-05-23T23:46:09.355Z,10.70
2023-05-23T23:48:42.988Z,11.90
2023-05-23T23:51:17.376Z,11.80
2023-05-23T23:53:53.302Z,11.10
2023-05-23T23:56:27.933Z,11.70
2023-05-23T23:59:01.607Z,11.40
